sensor_id;sensor_type;location;lat;lon;timestamp;P1;durP1;ratioP1;P2;durP2;ratioP2
43837;SDS011;65998;46.256;7.534;2023-04-25T00:02:08;24.83;;;11.37;;
43837;SDS011;65998;46.256;7.534;2023-04-25T00:04:34;28.90;;;12.90;;
43837;SDS011;65998;46.256;7.534;2023-04-25T00:07:00;28.23;;;12.60;;
43837;SDS011;65998;46.256;7.534;2023-04-25T00:09:26;27.25;;;12.45;;
43837;SDS011;65998;46.256;7.534;2023-04-25T00:11:52;26.67;;;11.85;;
43837;SDS011;65998;46.256;7.534;2023-04-25T00:14:18;26.70;;;12.30;;
43837;SDS011;65998;46.256;7.534;2023-04-25T00:16:44;26.58;;;12.43;;
43837;SDS011;65998;46.256;7.534;2023-04-25T00:19:10;25.02;;;11.35;;
43837;SDS011;65998;46.256;7.534;2023-04-25T00:21:36;28.67;;;11.87;;
43837;SDS011;65998;46.256;7.534;2023-04-25T00:24:02;25.65;;;11.43;;
43837;SDS011;65998;46.256;7.534;2023-04-25T00:26:28;25.25;;;11.30;;
43837;SDS011;65998;46.256;7.534;2023-04-25T00:28:54;27.77;;;11.97;;
43837;SDS011;65998;46.256;7.534;2023-04-25T00:31:20;24.58;;;10.75;;
43837;SDS011;65998;46.256;7.534;2023-04-25T00:33:45;24.17;;;10.70;;
43837;SDS011;65998;46.256;7.534;2023-04-25T00:36:11;20.98;;;10.63;;
43837;SDS011;65998;46.256;7.534;2023-04-25T00:38:37;23.70;;;10.48;;
43837;SDS011;65998;46.256;7.534;2023-04-25T00:41:04;24.55;;;11.50;;
43837;SDS011;65998;46.256;7.534;2023-04-25T00:43:31;24.85;;;11.38;;
43837;SDS011;65998;46.256;7.534;2023-04-25T00:45:59;22.48;;;10.88;;
43837;SDS011;65998;46.256;7.534;2023-04-25T00:48:25;23.50;;;11.05;;
43837;SDS011;65998;46.256;7.534;2023-04-25T00:50:52;20.83;;;9.77;;
43837;SDS011;65998;46.256;7.534;2023-04-25T00:53:20;22.97;;;10.47;;
43837;SDS011;65998;46.256;7.534;2023-04-25T00:55:47;22.42;;;9.70;;
43837;SDS011;65998;46.256;7.534;2023-04-25T00:58:13;23.10;;;10.32;;
43837;SDS011;65998;46.256;7.534;2023-04-25T01:00:40;20.98;;;9.55;;
43837;SDS011;65998;46.256;7.534;2023-04-25T01:03:06;21.08;;;10.02;;
43837;SDS011;65998;46.256;7.534;2023-04-25T01:05:32;21.37;;;9.80;;
43837;SDS011;65998;46.256;7.534;2023-04-25T01:07:58;22.00;;;9.90;;
43837;SDS011;65998;46.256;7.534;2023-04-25T01:10:25;21.35;;;9.27;;
43837;SDS011;65998;46.256;7.534;2023-04-25T01:12:50;19.33;;;9.13;;
43837;SDS011;65998;46.256;7.534;2023-04-25T01:15:16;18.92;;;8.85;;
43837;SDS011;65998;46.256;7.534;2023-04-25T01:17:42;18.07;;;8.20;;
43837;SDS011;65998;46.256;7.534;2023-04-25T01:20:08;19.08;;;8.98;;
43837;SDS011;65998;46.256;7.534;2023-04-25T01:22:34;18.67;;;8.77;;
43837;SDS011;65998;46.256;7.534;2023-04-25T01:25:01;18.23;;;9.02;;
43837;SDS011;65998;46.256;7.534;2023-04-25T01:27:27;16.27;;;7.65;;
43837;SDS011;65998;46.256;7.534;2023-04-25T01:29:54;18.48;;;8.13;;
43837;SDS011;65998;46.256;7.534;2023-04-25T01:32:20;20.13;;;8.57;;
43837;SDS011;65998;46.256;7.534;2023-04-25T01:34:48;16.40;;;7.65;;
43837;SDS011;65998;46.256;7.534;2023-04-25T01:37:13;17.80;;;8.20;;
43837;SDS011;65998;46.256;7.534;2023-04-25T01:39:39;18.23;;;8.43;;
43837;SDS011;65998;46.256;7.534;2023-04-25T01:42:06;19.38;;;8.30;;
43837;SDS011;65998;46.256;7.534;2023-04-25T01:44:32;17.58;;;8.07;;
43837;SDS011;65998;46.256;7.534;2023-04-25T01:46:57;13.82;;;6.57;;
43837;SDS011;65998;46.256;7.534;2023-04-25T01:49:23;15.95;;;7.00;;
43837;SDS011;65998;46.256;7.534;2023-04-25T01:51:49;17.20;;;7.90;;
43837;SDS011;65998;46.256;7.534;2023-04-25T01:54:15;15.95;;;7.15;;
43837;SDS011;65998;46.256;7.534;2023-04-25T01:56:42;17.85;;;7.45;;
43837;SDS011;65998;46.256;7.534;2023-04-25T01:59:08;15.68;;;6.68;;
43837;SDS011;65998;46.256;7.534;2023-04-25T02:01:33;16.50;;;7.38;;
43837;SDS011;65998;46.256;7.534;2023-04-25T02:03:59;17.17;;;7.03;;
43837;SDS011;65998;46.256;7.534;2023-04-25T02:06:25;16.30;;;7.27;;
43837;SDS011;65998;46.256;7.534;2023-04-25T02:08:51;16.80;;;7.03;;
43837;SDS011;65998;46.256;7.534;2023-04-25T02:11:16;16.50;;;7.20;;
43837;SDS011;65998;46.256;7.534;2023-04-25T02:13:42;14.55;;;7.05;;
43837;SDS011;65998;46.256;7.534;2023-04-25T02:16:08;16.47;;;7.20;;
43837;SDS011;65998;46.256;7.534;2023-04-25T02:18:34;13.13;;;6.85;;
43837;SDS011;65998;46.256;7.534;2023-04-25T02:21:00;15.17;;;6.87;;
43837;SDS011;65998;46.256;7.534;2023-04-25T02:23:25;14.70;;;6.60;;
43837;SDS011;65998;46.256;7.534;2023-04-25T02:25:51;13.80;;;5.93;;
43837;SDS011;65998;46.256;7.534;2023-04-25T02:28:18;13.18;;;6.20;;
43837;SDS011;65998;46.256;7.534;2023-04-25T02:30:44;15.10;;;6.20;;
43837;SDS011;65998;46.256;7.534;2023-04-25T02:33:10;13.43;;;6.30;;
43837;SDS011;65998;46.256;7.534;2023-04-25T02:35:35;14.10;;;6.07;;
43837;SDS011;65998;46.256;7.534;2023-04-25T02:38:01;12.15;;;5.50;;
43837;SDS011;65998;46.256;7.534;2023-04-25T02:40:27;12.48;;;6.00;;
43837;SDS011;65998;46.256;7.534;2023-04-25T02:42:53;12.07;;;5.57;;
43837;SDS011;65998;46.256;7.534;2023-04-25T02:45:19;13.52;;;5.90;;
43837;SDS011;65998;46.256;7.534;2023-04-25T02:47:45;13.77;;;5.80;;
43837;SDS011;65998;46.256;7.534;2023-04-25T02:50:10;12.63;;;6.00;;
43837;SDS011;65998;46.256;7.534;2023-04-25T02:52:36;12.75;;;5.60;;
43837;SDS011;65998;46.256;7.534;2023-04-25T02:55:02;12.17;;;5.57;;
43837;SDS011;65998;46.256;7.534;2023-04-25T02:57:28;12.02;;;5.32;;
43837;SDS011;65998;46.256;7.534;2023-04-25T02:59:54;13.98;;;5.70;;
43837;SDS011;65998;46.256;7.534;2023-04-25T03:02:20;11.90;;;5.25;;
43837;SDS011;65998;46.256;7.534;2023-04-25T03:04:45;12.05;;;5.72;;
43837;SDS011;65998;46.256;7.534;2023-04-25T03:07:11;12.10;;;5.10;;
43837;SDS011;65998;46.256;7.534;2023-04-25T03:09:37;10.52;;;5.03;;
43837;SDS011;65998;46.256;7.534;2023-04-25T03:12:03;11.77;;;5.20;;
43837;SDS011;65998;46.256;7.534;2023-04-25T03:14:29;9.88;;;4.72;;
43837;SDS011;65998;46.256;7.534;2023-04-25T03:16:55;10.95;;;4.93;;
43837;SDS011;65998;46.256;7.534;2023-04-25T03:19:20;11.23;;;5.03;;
43837;SDS011;65998;46.256;7.534;2023-04-25T03:21:46;11.35;;;4.78;;
43837;SDS011;65998;46.256;7.534;2023-04-25T03:24:12;11.40;;;4.93;;
43837;SDS011;65998;46.256;7.534;2023-04-25T03:26:38;10.07;;;4.78;;
43837;SDS011;65998;46.256;7.534;2023-04-25T03:29:04;10.85;;;5.20;;
43837;SDS011;65998;46.256;7.534;2023-04-25T03:31:30;9.80;;;4.70;;
43837;SDS011;65998;46.256;7.534;2023-04-25T03:33:56;11.23;;;4.97;;
43837;SDS011;65998;46.256;7.534;2023-04-25T03:36:22;9.32;;;4.45;;
43837;SDS011;65998;46.256;7.534;2023-04-25T03:38:47;11.20;;;4.60;;
43837;SDS011;65998;46.256;7.534;2023-04-25T03:41:13;9.25;;;4.28;;
43837;SDS011;65998;46.256;7.534;2023-04-25T03:43:39;10.48;;;4.72;;
43837;SDS011;65998;46.256;7.534;2023-04-25T03:46:05;9.50;;;4.20;;
43837;SDS011;65998;46.256;7.534;2023-04-25T03:48:31;8.47;;;3.90;;
43837;SDS011;65998;46.256;7.534;2023-04-25T03:50:57;10.18;;;4.30;;
43837;SDS011;65998;46.256;7.534;2023-04-25T03:53:22;10.43;;;4.50;;
43837;SDS011;65998;46.256;7.534;2023-04-25T03:55:48;11.02;;;4.03;;
43837;SDS011;65998;46.256;7.534;2023-04-25T03:58:14;10.00;;;4.20;;
43837;SDS011;65998;46.256;7.534;2023-04-25T04:00:40;9.32;;;4.22;;
43837;SDS011;65998;46.256;7.534;2023-04-25T04:03:05;8.68;;;4.20;;
43837;SDS011;65998;46.256;7.534;2023-04-25T04:05:31;9.73;;;4.00;;
43837;SDS011;65998;46.256;7.534;2023-04-25T04:07:57;8.25;;;3.65;;
43837;SDS011;65998;46.256;7.534;2023-04-25T04:10:23;8.00;;;3.93;;
43837;SDS011;65998;46.256;7.534;2023-04-25T04:12:48;9.90;;;4.25;;
43837;SDS011;65998;46.256;7.534;2023-04-25T04:15:14;8.20;;;3.80;;
43837;SDS011;65998;46.256;7.534;2023-04-25T04:17:40;8.70;;;3.72;;
43837;SDS011;65998;46.256;7.534;2023-04-25T04:20:06;6.95;;;3.50;;
43837;SDS011;65998;46.256;7.534;2023-04-25T04:22:32;6.80;;;3.40;;
43837;SDS011;65998;46.256;7.534;2023-04-25T04:24:58;7.65;;;3.50;;
43837;SDS011;65998;46.256;7.534;2023-04-25T04:27:24;7.35;;;3.50;;
43837;SDS011;65998;46.256;7.534;2023-04-25T04:29:50;7.93;;;3.30;;
43837;SDS011;65998;46.256;7.534;2023-04-25T04:32:15;6.88;;;3.20;;
43837;SDS011;65998;46.256;7.534;2023-04-25T04:34:41;9.18;;;3.75;;
43837;SDS011;65998;46.256;7.534;2023-04-25T04:37:07;6.78;;;3.00;;
43837;SDS011;65998;46.256;7.534;2023-04-25T04:39:33;7.20;;;3.53;;
43837;SDS011;65998;46.256;7.534;2023-04-25T04:41:59;7.07;;;3.30;;
43837;SDS011;65998;46.256;7.534;2023-04-25T04:44:25;7.80;;;3.35;;
43837;SDS011;65998;46.256;7.534;2023-04-25T04:46:51;7.00;;;3.15;;
43837;SDS011;65998;46.256;7.534;2023-04-25T04:49:17;7.47;;;3.17;;
43837;SDS011;65998;46.256;7.534;2023-04-25T04:51:43;6.40;;;2.85;;
43837;SDS011;65998;46.256;7.534;2023-04-25T04:54:09;7.57;;;3.50;;
43837;SDS011;65998;46.256;7.534;2023-04-25T04:56:34;9.07;;;3.27;;
43837;SDS011;65998;46.256;7.534;2023-04-25T04:59:00;6.90;;;3.20;;
43837;SDS011;65998;46.256;7.534;2023-04-25T05:01:26;6.83;;;2.77;;
43837;SDS011;65998;46.256;7.534;2023-04-25T05:03:52;7.03;;;2.80;;
43837;SDS011;65998;46.256;7.534;2023-04-25T05:06:18;8.48;;;2.97;;
43837;SDS011;65998;46.256;7.534;2023-04-25T05:08:45;7.03;;;3.00;;
43837;SDS011;65998;46.256;7.534;2023-04-25T05:11:10;6.63;;;2.78;;
43837;SDS011;65998;46.256;7.534;2023-04-25T05:13:36;6.47;;;2.80;;
43837;SDS011;65998;46.256;7.534;2023-04-25T05:16:02;7.07;;;2.65;;
43837;SDS011;65998;46.256;7.534;2023-04-25T05:18:28;6.95;;;2.97;;
43837;SDS011;65998;46.256;7.534;2023-04-25T05:20:54;6.03;;;2.80;;
43837;SDS011;65998;46.256;7.534;2023-04-25T05:23:20;6.30;;;2.92;;
43837;SDS011;65998;46.256;7.534;2023-04-25T05:25:45;7.00;;;2.60;;
43837;SDS011;65998;46.256;7.534;2023-04-25T05:28:12;6.07;;;2.70;;
43837;SDS011;65998;46.256;7.534;2023-04-25T05:30:38;4.57;;;2.10;;
43837;SDS011;65998;46.256;7.534;2023-04-25T05:33:05;7.50;;;2.38;;
43837;SDS011;65998;46.256;7.534;2023-04-25T05:35:30;6.30;;;2.90;;
43837;SDS011;65998;46.256;7.534;2023-04-25T05:37:56;5.55;;;2.53;;
43837;SDS011;65998;46.256;7.534;2023-04-25T05:40:22;5.57;;;2.20;;
43837;SDS011;65998;46.256;7.534;2023-04-25T05:42:48;7.78;;;2.47;;
43837;SDS011;65998;46.256;7.534;2023-04-25T05:45:14;5.25;;;2.17;;
43837;SDS011;65998;46.256;7.534;2023-04-25T05:47:40;5.67;;;2.20;;
43837;SDS011;65998;46.256;7.534;2023-04-25T05:50:06;5.03;;;2.00;;
43837;SDS011;65998;46.256;7.534;2023-04-25T05:52:32;5.30;;;2.20;;
43837;SDS011;65998;46.256;7.534;2023-04-25T05:54:58;5.07;;;2.30;;
43837;SDS011;65998;46.256;7.534;2023-04-25T05:57:25;4.82;;;1.98;;
43837;SDS011;65998;46.256;7.534;2023-04-25T05:59:52;6.17;;;2.30;;
43837;SDS011;65998;46.256;7.534;2023-04-25T06:02:19;4.57;;;2.17;;
43837;SDS011;65998;46.256;7.534;2023-04-25T06:04:45;4.75;;;2.05;;
43837;SDS011;65998;46.256;7.534;2023-04-25T06:07:11;6.18;;;2.10;;
43837;SDS011;65998;46.256;7.534;2023-04-25T06:09:37;4.80;;;2.00;;
43837;SDS011;65998;46.256;7.534;2023-04-25T06:12:03;4.07;;;1.83;;
43837;SDS011;65998;46.256;7.534;2023-04-25T06:14:29;5.55;;;2.30;;
43837;SDS011;65998;46.256;7.534;2023-04-25T06:16:55;4.90;;;2.13;;
43837;SDS011;65998;46.256;7.534;2023-04-25T06:19:20;4.20;;;1.73;;
43837;SDS011;65998;46.256;7.534;2023-04-25T06:21:46;3.97;;;1.60;;
43837;SDS011;65998;46.256;7.534;2023-04-25T06:24:12;4.57;;;2.00;;
43837;SDS011;65998;46.256;7.534;2023-04-25T06:26:38;4.40;;;1.88;;
43837;SDS011;65998;46.256;7.534;2023-04-25T06:29:03;4.17;;;1.77;;
43837;SDS011;65998;46.256;7.534;2023-04-25T06:31:29;4.70;;;2.03;;
43837;SDS011;65998;46.256;7.534;2023-04-25T06:33:55;5.13;;;1.93;;
43837;SDS011;65998;46.256;7.534;2023-04-25T06:36:21;4.85;;;2.10;;
43837;SDS011;65998;46.256;7.534;2023-04-25T06:38:46;3.97;;;1.73;;
43837;SDS011;65998;46.256;7.534;2023-04-25T06:41:12;4.78;;;2.00;;
43837;SDS011;65998;46.256;7.534;2023-04-25T06:43:38;4.00;;;1.75;;
43837;SDS011;65998;46.256;7.534;2023-04-25T06:46:04;3.85;;;2.63;;
43837;SDS011;65998;46.256;7.534;2023-04-25T06:48:29;4.10;;;1.67;;
43837;SDS011;65998;46.256;7.534;2023-04-25T06:50:55;4.80;;;1.80;;
43837;SDS011;65998;46.256;7.534;2023-04-25T06:53:21;4.20;;;1.73;;
43837;SDS011;65998;46.256;7.534;2023-04-25T06:55:47;4.45;;;1.63;;
43837;SDS011;65998;46.256;7.534;2023-04-25T06:58:13;5.93;;;1.65;;
43837;SDS011;65998;46.256;7.534;2023-04-25T07:00:38;4.13;;;1.55;;
43837;SDS011;65998;46.256;7.534;2023-04-25T07:03:04;4.43;;;1.60;;
43837;SDS011;65998;46.256;7.534;2023-04-25T07:05:30;3.70;;;1.63;;
43837;SDS011;65998;46.256;7.534;2023-04-25T07:07:56;4.20;;;1.67;;
43837;SDS011;65998;46.256;7.534;2023-04-25T07:10:22;4.47;;;1.90;;
43837;SDS011;65998;46.256;7.534;2023-04-25T07:12:47;4.50;;;1.80;;
43837;SDS011;65998;46.256;7.534;2023-04-25T07:15:13;3.55;;;1.60;;
43837;SDS011;65998;46.256;7.534;2023-04-25T07:17:39;3.50;;;1.30;;
43837;SDS011;65998;46.256;7.534;2023-04-25T07:20:05;3.92;;;1.60;;
43837;SDS011;65998;46.256;7.534;2023-04-25T07:22:31;3.28;;;1.50;;
43837;SDS011;65998;46.256;7.534;2023-04-25T07:24:58;3.35;;;1.40;;
43837;SDS011;65998;46.256;7.534;2023-04-25T07:27:23;3.07;;;1.30;;
43837;SDS011;65998;46.256;7.534;2023-04-25T07:29:49;3.95;;;1.60;;
43837;SDS011;65998;46.256;7.534;2023-04-25T07:32:15;3.53;;;1.40;;
43837;SDS011;65998;46.256;7.534;2023-04-25T07:34:41;3.42;;;1.20;;
43837;SDS011;65998;46.256;7.534;2023-04-25T07:37:07;2.97;;;1.30;;
43837;SDS011;65998;46.256;7.534;2023-04-25T07:39:33;3.85;;;1.52;;
43837;SDS011;65998;46.256;7.534;2023-04-25T07:41:58;3.70;;;1.40;;
43837;SDS011;65998;46.256;7.534;2023-04-25T07:44:24;3.60;;;1.40;;
43837;SDS011;65998;46.256;7.534;2023-04-25T07:46:50;3.53;;;1.30;;
43837;SDS011;65998;46.256;7.534;2023-04-25T07:49:16;3.92;;;1.45;;
43837;SDS011;65998;46.256;7.534;2023-04-25T07:51:42;3.70;;;1.37;;
43837;SDS011;65998;46.256;7.534;2023-04-25T07:54:08;3.38;;;1.17;;
43837;SDS011;65998;46.256;7.534;2023-04-25T07:56:33;3.30;;;1.40;;
43837;SDS011;65998;46.256;7.534;2023-04-25T07:58:59;3.15;;;1.30;;
43837;SDS011;65998;46.256;7.534;2023-04-25T08:01:25;3.65;;;1.23;;
43837;SDS011;65998;46.256;7.534;2023-04-25T08:03:51;3.13;;;1.25;;
43837;SDS011;65998;46.256;7.534;2023-04-25T08:06:17;4.72;;;1.17;;
43837;SDS011;65998;46.256;7.534;2023-04-25T08:08:43;3.22;;;1.38;;
43837;SDS011;65998;46.256;7.534;2023-04-25T08:11:08;3.90;;;1.20;;
43837;SDS011;65998;46.256;7.534;2023-04-25T08:13:34;3.00;;;1.17;;
43837;SDS011;65998;46.256;7.534;2023-04-25T08:16:00;3.50;;;1.30;;
43837;SDS011;65998;46.256;7.534;2023-04-25T08:18:26;3.13;;;1.20;;
43837;SDS011;65998;46.256;7.534;2023-04-25T08:20:52;3.28;;;1.10;;
43837;SDS011;65998;46.256;7.534;2023-04-25T08:23:18;2.87;;;1.20;;
43837;SDS011;65998;46.256;7.534;2023-04-25T08:25:43;4.32;;;1.20;;
43837;SDS011;65998;46.256;7.534;2023-04-25T08:28:09;3.92;;;1.30;;
43837;SDS011;65998;46.256;7.534;2023-04-25T08:30:36;3.23;;;1.20;;
43837;SDS011;65998;46.256;7.534;2023-04-25T08:33:02;2.83;;;1.20;;
43837;SDS011;65998;46.256;7.534;2023-04-25T08:35:28;3.13;;;1.20;;
43837;SDS011;65998;46.256;7.534;2023-04-25T08:37:54;2.70;;;1.00;;
43837;SDS011;65998;46.256;7.534;2023-04-25T08:40:19;3.35;;;0.98;;
43837;SDS011;65998;46.256;7.534;2023-04-25T08:42:48;2.70;;;0.95;;
43837;SDS011;65998;46.256;7.534;2023-04-25T08:45:15;2.40;;;0.80;;
43837;SDS011;65998;46.256;7.534;2023-04-25T08:47:41;3.10;;;0.90;;
43837;SDS011;65998;46.256;7.534;2023-04-25T08:50:10;3.10;;;0.95;;
43837;SDS011;65998;46.256;7.534;2023-04-25T08:52:37;2.37;;;0.90;;
43837;SDS011;65998;46.256;7.534;2023-04-25T08:55:09;2.80;;;1.02;;
43837;SDS011;65998;46.256;7.534;2023-04-25T08:57:37;2.60;;;0.90;;
43837;SDS011;65998;46.256;7.534;2023-04-25T09:00:05;2.72;;;0.98;;
43837;SDS011;65998;46.256;7.534;2023-04-25T09:02:31;2.78;;;1.00;;
43837;SDS011;65998;46.256;7.534;2023-04-25T09:04:58;2.50;;;0.95;;
43837;SDS011;65998;46.256;7.534;2023-04-25T09:07:24;2.72;;;0.95;;
43837;SDS011;65998;46.256;7.534;2023-04-25T09:09:50;3.42;;;1.13;;
43837;SDS011;65998;46.256;7.534;2023-04-25T09:12:18;2.35;;;0.77;;
43837;SDS011;65998;46.256;7.534;2023-04-25T09:14:46;2.53;;;0.80;;
43837;SDS011;65998;46.256;7.534;2023-04-25T09:17:27;2.55;;;0.80;;
43837;SDS011;65998;46.256;7.534;2023-04-25T09:19:53;3.03;;;1.02;;
43837;SDS011;65998;46.256;7.534;2023-04-25T09:22:19;3.03;;;0.90;;
43837;SDS011;65998;46.256;7.534;2023-04-25T09:24:46;3.05;;;0.90;;
43837;SDS011;65998;46.256;7.534;2023-04-25T09:27:12;2.88;;;0.90;;
43837;SDS011;65998;46.256;7.534;2023-04-25T09:29:43;3.85;;;1.00;;
43837;SDS011;65998;46.256;7.534;2023-04-25T09:34:44;2.72;;;0.90;;
43837;SDS011;65998;46.256;7.534;2023-04-25T09:37:12;2.83;;;0.80;;
43837;SDS011;65998;46.256;7.534;2023-04-25T09:39:38;2.63;;;0.80;;
43837;SDS011;65998;46.256;7.534;2023-04-25T09:42:05;2.80;;;0.90;;
43837;SDS011;65998;46.256;7.534;2023-04-25T09:44:31;2.38;;;0.63;;
43837;SDS011;65998;46.256;7.534;2023-04-25T09:46:57;2.45;;;0.70;;
43837;SDS011;65998;46.256;7.534;2023-04-25T09:49:23;2.43;;;0.70;;
43837;SDS011;65998;46.256;7.534;2023-04-25T09:51:53;2.30;;;0.82;;
43837;SDS011;65998;46.256;7.534;2023-04-25T09:54:23;2.80;;;0.80;;
43837;SDS011;65998;46.256;7.534;2023-04-25T09:56:51;2.70;;;0.82;;
43837;SDS011;65998;46.256;7.534;2023-04-25T09:59:19;2.53;;;0.90;;
43837;SDS011;65998;46.256;7.534;2023-04-25T10:01:46;2.22;;;0.80;;
43837;SDS011;65998;46.256;7.534;2023-04-25T10:04:15;2.28;;;0.80;;
43837;SDS011;65998;46.256;7.534;2023-04-25T10:06:45;2.55;;;0.82;;
43837;SDS011;65998;46.256;7.534;2023-04-25T10:09:13;2.20;;;0.70;;
43837;SDS011;65998;46.256;7.534;2023-04-25T10:11:39;2.13;;;0.77;;
43837;SDS011;65998;46.256;7.534;2023-04-25T10:14:06;2.22;;;0.73;;
43837;SDS011;65998;46.256;7.534;2023-04-25T10:16:31;2.30;;;0.63;;
43837;SDS011;65998;46.256;7.534;2023-04-25T10:18:57;2.80;;;0.95;;
43837;SDS011;65998;46.256;7.534;2023-04-25T10:21:24;2.67;;;0.70;;
43837;SDS011;65998;46.256;7.534;2023-04-25T10:23:53;2.40;;;0.80;;
43837;SDS011;65998;46.256;7.534;2023-04-25T10:26:20;2.90;;;0.90;;
43837;SDS011;65998;46.256;7.534;2023-04-25T10:28:55;2.28;;;0.60;;
43837;SDS011;65998;46.256;7.534;2023-04-25T10:31:24;1.95;;;0.65;;
43837;SDS011;65998;46.256;7.534;2023-04-25T10:33:50;2.05;;;0.60;;
43837;SDS011;65998;46.256;7.534;2023-04-25T10:36:21;2.30;;;0.60;;
43837;SDS011;65998;46.256;7.534;2023-04-25T10:38:48;2.72;;;0.90;;
43837;SDS011;65998;46.256;7.534;2023-04-25T10:41:15;2.67;;;0.63;;
43837;SDS011;65998;46.256;7.534;2023-04-25T10:43:43;2.27;;;0.87;;
43837;SDS011;65998;46.256;7.534;2023-04-25T10:46:29;2.28;;;0.70;;
43837;SDS011;65998;46.256;7.534;2023-04-25T10:48:56;2.28;;;0.60;;
43837;SDS011;65998;46.256;7.534;2023-04-25T10:51:24;2.22;;;0.70;;
43837;SDS011;65998;46.256;7.534;2023-04-25T10:56:30;1.90;;;0.57;;
43837;SDS011;65998;46.256;7.534;2023-04-25T10:59:05;2.45;;;0.50;;
43837;SDS011;65998;46.256;7.534;2023-04-25T11:01:44;2.17;;;0.60;;
43837;SDS011;65998;46.256;7.534;2023-04-25T11:04:29;2.42;;;0.75;;
43837;SDS011;65998;46.256;7.534;2023-04-25T11:07:03;2.30;;;0.70;;
43837;SDS011;65998;46.256;7.534;2023-04-25T11:09:30;2.10;;;0.60;;
43837;SDS011;65998;46.256;7.534;2023-04-25T11:11:59;2.00;;;0.70;;
43837;SDS011;65998;46.256;7.534;2023-04-25T11:14:25;2.33;;;0.80;;
43837;SDS011;65998;46.256;7.534;2023-04-25T11:16:52;2.60;;;0.70;;
43837;SDS011;65998;46.256;7.534;2023-04-25T11:19:22;2.30;;;0.70;;
43837;SDS011;65998;46.256;7.534;2023-04-25T11:21:49;2.07;;;0.50;;
43837;SDS011;65998;46.256;7.534;2023-04-25T11:24:18;2.00;;;0.50;;
43837;SDS011;65998;46.256;7.534;2023-04-25T11:26:46;2.08;;;0.60;;
43837;SDS011;65998;46.256;7.534;2023-04-25T11:29:12;2.17;;;0.55;;
43837;SDS011;65998;46.256;7.534;2023-04-25T11:31:38;2.22;;;0.63;;
43837;SDS011;65998;46.256;7.534;2023-04-25T11:34:03;2.37;;;0.70;;
43837;SDS011;65998;46.256;7.534;2023-04-25T11:36:29;1.70;;;0.60;;
43837;SDS011;65998;46.256;7.534;2023-04-25T11:38:56;2.20;;;0.60;;
43837;SDS011;65998;46.256;7.534;2023-04-25T11:41:22;2.42;;;0.80;;
43837;SDS011;65998;46.256;7.534;2023-04-25T11:43:48;2.00;;;0.57;;
43837;SDS011;65998;46.256;7.534;2023-04-25T11:46:15;2.00;;;0.65;;
43837;SDS011;65998;46.256;7.534;2023-04-25T11:48:41;1.80;;;0.60;;
43837;SDS011;65998;46.256;7.534;2023-04-25T11:51:08;2.25;;;0.70;;
43837;SDS011;65998;46.256;7.534;2023-04-25T11:53:34;2.50;;;0.50;;
43837;SDS011;65998;46.256;7.534;2023-04-25T11:56:00;2.20;;;0.65;;
43837;SDS011;65998;46.256;7.534;2023-04-25T11:58:26;2.15;;;0.60;;
43837;SDS011;65998;46.256;7.534;2023-04-25T12:00:52;2.42;;;0.70;;
43837;SDS011;65998;46.256;7.534;2023-04-25T12:03:18;1.90;;;0.60;;
43837;SDS011;65998;46.256;7.534;2023-04-25T12:05:45;2.00;;;0.70;;
43837;SDS011;65998;46.256;7.534;2023-04-25T12:08:17;2.45;;;0.65;;
43837;SDS011;65998;46.256;7.534;2023-04-25T12:10:43;2.30;;;0.65;;
43837;SDS011;65998;46.256;7.534;2023-04-25T12:13:18;1.87;;;0.57;;
43837;SDS011;65998;46.256;7.534;2023-04-25T12:15:47;2.05;;;0.60;;
43837;SDS011;65998;46.256;7.534;2023-04-25T12:18:13;2.58;;;0.65;;
43837;SDS011;65998;46.256;7.534;2023-04-25T12:20:39;2.28;;;0.40;;
43837;SDS011;65998;46.256;7.534;2023-04-25T12:23:07;2.05;;;0.65;;
43837;SDS011;65998;46.256;7.534;2023-04-25T12:25:37;1.63;;;0.40;;
43837;SDS011;65998;46.256;7.534;2023-04-25T12:33:23;1.75;;;0.50;;
43837;SDS011;65998;46.256;7.534;2023-04-25T12:35:49;1.88;;;0.50;;
43837;SDS011;65998;46.256;7.534;2023-04-25T12:40:51;2.00;;;0.50;;
43837;SDS011;65998;46.256;7.534;2023-04-25T12:43:17;1.77;;;0.50;;
43837;SDS011;65998;46.256;7.534;2023-04-25T12:45:44;1.95;;;0.60;;
43837;SDS011;65998;46.256;7.534;2023-04-25T12:48:12;1.83;;;0.50;;
43837;SDS011;65998;46.256;7.534;2023-04-25T12:50:38;2.40;;;0.60;;
43837;SDS011;65998;46.256;7.534;2023-04-25T12:53:04;2.55;;;0.73;;
43837;SDS011;65998;46.256;7.534;2023-04-25T12:55:30;2.27;;;0.60;;
43837;SDS011;65998;46.256;7.534;2023-04-25T12:57:55;2.13;;;0.60;;
43837;SDS011;65998;46.256;7.534;2023-04-25T13:00:21;2.10;;;0.63;;
43837;SDS011;65998;46.256;7.534;2023-04-25T13:02:47;2.00;;;0.70;;
43837;SDS011;65998;46.256;7.534;2023-04-25T13:05:13;1.67;;;0.40;;
43837;SDS011;65998;46.256;7.534;2023-04-25T13:07:38;1.83;;;0.50;;
43837;SDS011;65998;46.256;7.534;2023-04-25T13:10:05;1.50;;;0.40;;
43837;SDS011;65998;46.256;7.534;2023-04-25T13:12:32;1.83;;;0.70;;
43837;SDS011;65998;46.256;7.534;2023-04-25T13:14:58;2.33;;;0.57;;
43837;SDS011;65998;46.256;7.534;2023-04-25T13:17:23;2.00;;;0.60;;
43837;SDS011;65998;46.256;7.534;2023-04-25T13:19:49;1.77;;;0.50;;
43837;SDS011;65998;46.256;7.534;2023-04-25T13:22:15;2.10;;;0.50;;
43837;SDS011;65998;46.256;7.534;2023-04-25T13:24:42;1.80;;;0.50;;
43837;SDS011;65998;46.256;7.534;2023-04-25T13:27:08;2.10;;;0.50;;
43837;SDS011;65998;46.256;7.534;2023-04-25T13:29:34;1.67;;;0.45;;
43837;SDS011;65998;46.256;7.534;2023-04-25T13:32:00;1.83;;;0.50;;
43837;SDS011;65998;46.256;7.534;2023-04-25T13:34:26;1.70;;;0.50;;
43837;SDS011;65998;46.256;7.534;2023-04-25T13:36:52;1.50;;;0.40;;
43837;SDS011;65998;46.256;7.534;2023-04-25T13:39:18;2.10;;;0.65;;
43837;SDS011;65998;46.256;7.534;2023-04-25T13:41:43;1.63;;;0.47;;
43837;SDS011;65998;46.256;7.534;2023-04-25T13:44:09;2.00;;;0.45;;
43837;SDS011;65998;46.256;7.534;2023-04-25T13:46:35;2.05;;;0.60;;
43837;SDS011;65998;46.256;7.534;2023-04-25T13:49:01;1.80;;;0.45;;
43837;SDS011;65998;46.256;7.534;2023-04-25T13:51:27;2.35;;;0.50;;
43837;SDS011;65998;46.256;7.534;2023-04-25T13:53:53;1.92;;;0.60;;
43837;SDS011;65998;46.256;7.534;2023-04-25T13:56:18;1.50;;;0.40;;
43837;SDS011;65998;46.256;7.534;2023-04-25T13:58:44;1.88;;;0.40;;
43837;SDS011;65998;46.256;7.534;2023-04-25T14:01:10;1.80;;;0.50;;
43837;SDS011;65998;46.256;7.534;2023-04-25T14:03:36;1.90;;;0.60;;
43837;SDS011;65998;46.256;7.534;2023-04-25T14:06:02;1.50;;;0.32;;
43837;SDS011;65998;46.256;7.534;2023-04-25T14:08:28;1.73;;;0.50;;
43837;SDS011;65998;46.256;7.534;2023-04-25T14:10:54;1.70;;;0.47;;
43837;SDS011;65998;46.256;7.534;2023-04-25T14:13:20;1.60;;;0.40;;
43837;SDS011;65998;46.256;7.534;2023-04-25T14:15:46;1.73;;;0.50;;
43837;SDS011;65998;46.256;7.534;2023-04-25T14:18:11;1.98;;;0.40;;
43837;SDS011;65998;46.256;7.534;2023-04-25T14:20:37;1.67;;;0.40;;
43837;SDS011;65998;46.256;7.534;2023-04-25T14:23:03;2.20;;;0.60;;
43837;SDS011;65998;46.256;7.534;2023-04-25T14:25:29;1.60;;;0.40;;
43837;SDS011;65998;46.256;7.534;2023-04-25T14:27:55;2.00;;;0.50;;
43837;SDS011;65998;46.256;7.534;2023-04-25T14:30:21;1.83;;;0.63;;
43837;SDS011;65998;46.256;7.534;2023-04-25T14:32:48;1.90;;;0.50;;
43837;SDS011;65998;46.256;7.534;2023-04-25T14:35:14;1.92;;;0.50;;
43837;SDS011;65998;46.256;7.534;2023-04-25T14:37:40;2.08;;;0.50;;
43837;SDS011;65998;46.256;7.534;2023-04-25T14:40:06;1.97;;;0.50;;
43837;SDS011;65998;46.256;7.534;2023-04-25T14:42:33;2.47;;;0.52;;
43837;SDS011;65998;46.256;7.534;2023-04-25T14:44:59;1.63;;;0.43;;
43837;SDS011;65998;46.256;7.534;2023-04-25T14:47:25;1.73;;;0.45;;
43837;SDS011;65998;46.256;7.534;2023-04-25T14:49:50;1.90;;;0.60;;
43837;SDS011;65998;46.256;7.534;2023-04-25T14:52:16;1.47;;;0.30;;